Latest Weather Observations for Century Mine

IDQ60801

Issued at 5:32 pm EST Tuesday 31 May 2016 (issued every 30 minutes, with the page automatically refreshed every 10 minutes)

About weather observations | Map of weather stations | Latest weather observations for QLD | Other Formats
Station Details ID: 029167 Name: CENTURY MINE Lat: -18.76 Lon: 138.71 Height: 126.8 m
Data from the previous 72 hours. | See also: Recent months at Century Mine
Date/Time
EST
Temp
°C
App
Temp
°C
Dew
Point
Rel
Hum
%
Delta-T
°C
Wind Press
QNH
hPa
Press
MSL
hPa
Rain
since 9 am
mm
Dir
 
Spd
km/h
Gust
km/h
Spd
kts
Gust
kts
31/05:30pm 31.0 31.0 13.7 34 10.5 SSE 6 7 3 4 1014.2 1013.6 0.0
31/05:00pm 31.5 31.4 13.3 33 11.0 ESE 6 9 3 5 1014.1 1013.5 0.0
31/04:30pm 32.4 32.2 13.1 31 11.6 NE 6 11 3 6 1014.0 1013.4 0.0
31/04:00pm 32.6 32.7 13.8 32 11.5 E 6 11 3 6 1013.8 1013.2 0.0
31/03:30pm 32.3 32.1 13.5 32 11.4 ESE 7 13 4 7 1013.9 1013.3 0.0
31/03:00pm 32.5 32.2 13.2 31 11.6 NNE 7 13 4 7 1014.2 1013.6 0.0
31/02:30pm 33.0 33.2 14.1 32 11.6 NNW 6 13 3 7 1014.5 1013.9 0.0
31/02:00pm 33.1 32.2 13.7 31 11.8 NE 11 19 6 10 1014.8 1014.2 0.0
31/01:30pm 32.5 31.5 14.6 34 11.0 NE 13 22 7 12 1015.3 1014.7 0.0
31/01:00pm 32.5 32.2 15.5 36 10.6 NNE 11 19 6 10 1015.8 1015.2 0.0
31/12:30pm 32.3 32.5 15.7 36 10.4 NE 9 17 5 9 1016.5 1015.9 0.0
31/12:00pm 31.5 30.9 14.6 36 10.4 NE 11 19 6 10 1017.0 1016.4 0.0
31/11:30am 31.3 30.7 13.6 34 10.7 ENE 9 15 5 8 1017.4 1016.8 0.0
31/11:00am 30.3 28.8 11.8 32 10.8 E 11 17 6 9 1017.6 1017.0 0.0
31/10:30am 29.0 26.7 10.6 32 10.5 E 13 19 7 10 1017.9 1017.4 0.0
31/10:00am 28.2 25.8 9.9 32 10.3 ESE 13 17 7 9 1018.1 1017.6 0.0
31/09:30am 27.6 26.5 10.8 35 9.6 SE 7 9 4 5 1018.0 1017.5 0.0
31/09:00am 25.4 23.4 8.8 35 9.0 SE 9 17 5 9 1017.7 1017.2 0.0
31/08:30am 23.8 23.0 11.8 47 6.8 SSE 7 11 4 6 1017.4 1016.8 0.0
31/08:00am 20.7 21.2 15.0 70 3.4 S 6 7 3 4 1017.2 1016.6 0.0
31/07:30am 18.3 19.8 14.6 79 2.2 CALM 0 0 0 0 1016.9 1016.3 0.0
31/07:00am 18.1 19.6 14.6 80 2.0 CALM 0 0 0 0 1016.7 1016.1 0.0
31/06:30am 18.0 18.4 14.7 81 1.9 SSE 6 7 3 4 1016.4 1015.8 0.0
31/06:00am 17.6 18.1 14.9 84 1.6 SSW 6 7 3 4 1016.2 1015.6 0.0
31/05:30am 17.6 18.1 14.9 84 1.6 SSW 6 9 3 5 1016.0 1015.4 0.0
31/05:00am 17.7 19.2 14.6 82 1.8 CALM 0 0 0 0 1016.0 1015.4 0.0
31/04:30am 18.0 19.4 14.5 80 2.0 CALM 0 0 0 0 1015.8 1015.2 0.0
31/04:00am 18.4 18.6 14.3 77 2.4 SSW 6 7 3 4 1015.8 1015.2 0.0
31/03:30am 18.5 18.5 14.2 76 2.5 SSW 7 9 4 5 1015.9 1015.3 0.0
31/03:00am 18.3 18.4 14.4 78 2.3 SSW 7 9 4 5 1016.0 1015.4 0.0
31/02:30am 18.6 19.9 14.1 75 2.6 CALM 0 0 0 0 1016.3 1015.7 0.0
31/02:00am 18.9 19.6 13.5 71 3.1 SW 2 6 1 3 1016.2 1015.6 0.0
31/01:30am 19.5 20.6 13.4 68 3.5 CALM 0 0 0 0 1016.3 1015.7 0.0
31/01:00am 19.9 20.0 14.0 69 3.4 SW 6 7 3 4 1016.2 1015.6 0.0
31/12:30am 20.5 20.6 13.9 66 3.8 W 6 7 3 4 1016.4 1015.8 0.0
31/12:00am 21.8 21.7 13.9 61 4.6 NE 7 13 4 7 1016.6 1016.0 0.0
 
Date/Time
EST
Temp
°C
App
Temp
°C
Dew
Point
Rel
Hum
%
Delta-T
°C
Wind Press
QNH
hPa
Press
MSL
hPa
Rain
since 9 am
mm
Dir
 
Spd
km/h
Gust
km/h
Spd
kts
Gust
kts
30/11:30pm 21.1 21.1 14.3 65 4.0 SSW 7 9 4 5 1016.3 1015.7 0.0
30/11:00pm 21.2 20.9 14.4 65 4.0 SSW 9 11 5 6 1016.2 1015.6 0.0
30/10:30pm 21.0 21.1 14.4 66 3.9 SSW 7 9 4 5 1016.2 1015.6 0.0
30/10:00pm 21.4 21.8 13.8 62 4.4 SSE 4 7 2 4 1016.1 1015.5 0.0
30/09:30pm 22.0 22.3 14.4 62 4.5 SSW 6 6 3 3 1016.0 1015.4 0.0
30/09:00pm 22.5 22.5 13.6 57 5.2 S 6 7 3 4 1015.9 1015.3 0.0
30/08:30pm 23.0 22.8 13.5 55 5.5 S 7 9 4 5 1015.8 1015.2 0.0
30/08:00pm 23.6 23.5 13.2 52 6.0 S 6 7 3 4 1015.5 1014.9 0.0
30/07:30pm 24.6 24.0 12.2 46 7.1 SSE 7 9 4 5 1015.1 1014.5 0.0
30/07:00pm 26.5 25.6 11.4 39 8.6 SSE 7 9 4 5 1014.7 1014.1 0.0
30/06:30pm 27.7 26.3 10.9 35 9.6 SSE 9 11 5 6 1014.5 1013.9 0.0
30/06:00pm 29.6 28.5 10.7 31 10.8 ESE 7 9 4 5 1014.1 1013.5 0.0
30/05:30pm 31.0 28.9 9.8 27 12.1 E 11 17 6 9 1014.0 1013.4 0.0
30/05:00pm 31.6 28.7 9.8 26 12.4 E 15 22 8 12 1013.8 1013.2 0.0
30/04:30pm 32.3 30.0 10.4 26 12.7 E 13 20 7 11 1013.6 1013.0 0.0
30/04:00pm 32.4 29.6 9.9 25 12.9 E 15 24 8 13 1013.5 1012.9 0.0
30/03:30pm 32.5 29.7 9.9 25 13.0 ENE 15 30 8 16 1013.6 1013.0 0.0
30/03:00pm 32.7 30.1 9.5 24 13.2 E 13 22 7 12 1013.8 1013.2 0.0
30/02:30pm 32.3 29.5 8.5 23 13.3 E 13 24 7 13 1014.2 1013.6 0.0
30/02:00pm 31.9 28.6 8.2 23 13.2 ESE 15 26 8 14 1014.7 1014.1 0.0
30/01:30pm 31.6 28.1 7.3 22 13.3 E 15 20 8 11 1015.5 1014.9 0.0
30/01:00pm 31.6 27.9 8.0 23 13.1 E 17 28 9 15 1016.0 1015.4 0.0
30/12:30pm 31.1 26.6 6.2 21 13.4 E 19 28 10 15 1016.7 1016.1 0.0
30/12:00pm 30.8 26.7 6.0 21 13.2 ENE 17 24 9 13 1017.3 1016.7 0.0
30/11:30am 29.8 25.5 5.1 21 12.9 E 17 20 9 11 1017.7 1017.2 0.0
30/11:00am 29.4 25.3 6.1 23 12.4 E 17 24 9 13 1018.1 1017.6 0.0
30/10:30am 28.6 25.2 6.1 24 11.9 ESE 13 19 7 10 1018.3 1017.8 0.0
30/10:00am 27.2 24.2 6.0 26 11.1 SE 11 20 6 11 1018.3 1017.8 0.0
30/09:30am 25.5 22.1 5.7 28 10.2 ESE 13 19 7 10 1018.3 1017.8 0.0
30/09:00am 24.1 20.8 6.4 32 9.1 SE 13 22 7 12 1017.9 1017.4 0.0
30/08:30am 22.2 19.9 9.0 43 7.1 SE 11 17 6 9 1017.6 1017.0 0.0
30/08:00am 19.5 19.0 12.5 64 3.9 SSE 7 9 4 5 1017.3 1016.7 0.0
30/07:30am 16.9 16.3 12.2 74 2.6 S 7 9 4 5 1016.9 1016.3 0.0
30/07:00am 17.0 16.3 11.5 70 3.0 SSE 6 7 3 4 1016.7 1016.1 0.0
30/06:30am 17.6 16.7 10.7 64 3.7 SSE 6 7 3 4 1016.5 1015.9 0.0
30/06:00am 18.3 17.1 10.4 60 4.3 SSE 7 9 4 5 1016.1 1015.5 0.0
30/05:30am 18.6 17.7 11.2 62 4.1 S 7 11 4 6 1015.9 1015.3 0.0
30/05:00am 18.0 17.2 11.6 66 3.5 SSE 7 11 4 6 1015.7 1015.1 0.0
30/04:30am 17.8 18.7 12.9 73 2.8 CALM 0 2 0 1 1015.7 1015.1 0.0
30/04:00am 18.7 17.8 11.3 62 4.1 S 7 9 4 5 1015.7 1015.1 0.0
30/03:30am 18.7 17.8 12.5 67 3.5 SSE 9 9 5 5 1015.6 1015.0 0.0
30/03:00am 18.1 17.3 13.0 72 2.9 S 9 11 5 6 1015.6 1015.0 0.0
30/02:30am 17.7 16.9 12.8 73 2.8 S 9 9 5 5 1015.6 1015.0 0.0
30/02:00am 18.0 18.8 12.7 71 3.0 CALM 0 0 0 0 1015.8 1015.2 0.0
30/01:30am 18.3 19.4 13.6 74 2.7 CALM 0 0 0 0 1015.8 1015.2 0.0
30/01:00am 18.8 19.7 13.0 69 3.3 CALM 0 0 0 0 1016.2 1015.6 0.0
30/12:30am 19.4 19.0 13.1 67 3.6 SSW 7 9 4 5 1016.2 1015.6 0.0
30/12:00am 18.8 19.1 14.9 78 2.3 SSE 7 7 4 4 1016.1 1015.5 0.0
 
Date/Time
EST
Temp
°C
App
Temp
°C
Dew
Point
Rel
Hum
%
Delta-T
°C
Wind Press
QNH
hPa
Press
MSL
hPa
Rain
since 9 am
mm
Dir
 
Spd
km/h
Gust
km/h
Spd
kts
Gust
kts
29/11:30pm 19.2 19.3 14.5 74 2.7 S 7 7 4 4 1016.2 1015.6 0.0
29/11:00pm 19.6 19.7 14.0 70 3.2 SE 6 7 3 4 1016.3 1015.7 0.0
29/10:30pm 20.3 20.3 13.5 65 3.9 SSE 6 7 3 4 1016.5 1015.9 0.0
29/10:00pm 20.7 22.1 14.4 67 3.7 CALM 0 0 0 0 1016.6 1016.0 0.0
29/09:30pm 22.3 22.7 13.6 58 5.1 E 4 6 2 3 1016.4 1015.8 0.0
29/09:00pm 23.1 22.8 12.7 52 6.0 E 6 9 3 5 1016.3 1015.7 0.0
29/08:30pm 22.3 23.1 15.9 67 3.9 E 6 9 3 5 1016.2 1015.6 0.0
29/08:00pm 22.4 24.3 15.7 66 4.0 CALM 0 6 0 3 1015.9 1015.3 0.0
29/07:30pm 23.5 24.3 14.8 58 5.2 E 4 6 2 3 1015.6 1015.0 0.0
29/07:00pm 24.5 25.9 14.3 53 6.1 CALM 0 0 0 0 1015.1 1014.5 0.0
29/06:30pm 26.3 26.8 11.6 40 8.4 CALM 0 0 0 0 1014.8 1014.2 0.0
29/06:00pm 29.3 29.0 11.4 33 10.4 E 4 7 2 4 1014.5 1013.9 0.0
29/05:30pm 30.4 29.6 10.9 30 11.3 SE 6 9 3 5 1014.2 1013.6 0.0
29/05:00pm 30.7 29.4 10.1 28 11.8 SE 7 11 4 6 1014.0 1013.4 0.0
29/04:30pm 30.9 29.5 9.7 27 12.0 E 7 11 4 6 1013.8 1013.2 0.0
29/04:00pm 31.6 30.3 9.2 25 12.7 ENE 6 9 3 5 1013.8 1013.2 0.0
29/03:30pm 30.9 29.8 8.6 25 12.4 SSE 4 13 2 7 1014.1 1013.5 0.0
29/03:00pm 30.6 28.5 8.3 25 12.4 ESE 9 15 5 8 1014.4 1013.8 0.0
29/02:30pm 30.1 28.1 8.5 26 12.0 S 9 15 5 8 1014.5 1013.9 0.0
29/02:00pm 29.9 27.7 7.8 25 12.1 SSE 9 15 5 8 1014.9 1014.3 0.0
29/01:30pm 29.3 26.9 7.2 25 11.9 E 9 15 5 8 1015.2 1014.6 0.0
29/01:00pm 28.7 26.9 7.3 26 11.5 ESE 6 13 3 7 1015.7 1015.1 0.0
29/12:30pm 28.6 26.8 7.8 27 11.3 ENE 7 13 4 7 1016.2 1015.6 0.0
29/12:00pm 27.2 24.3 6.6 27 10.9 SE 11 17 6 9 1016.7 1016.1 0.0
29/11:30am 26.2 23.1 7.3 30 10.1 SE 13 20 7 11 1017.3 1016.7 0.0
29/11:00am 26.0 23.5 6.6 29 10.2 ESE 9 15 5 8 1017.7 1017.2 0.0
29/10:30am 26.2 23.5 7.3 30 10.1 E 11 15 6 8 1017.6 1017.0 0.0
29/10:00am 24.8 20.8 6.5 31 9.5 E 17 24 9 13 1017.6 1017.0 0.0
29/09:30am 23.4 20.2 6.7 34 8.7 ESE 13 20 7 11 1017.7 1017.2 0.0
29/09:00am 22.3 19.7 7.7 39 7.6 SE 11 17 6 9 1017.3 1016.7 0.0
29/08:30am 21.2 19.5 9.8 48 6.2 SE 9 13 5 7 1017.0 1016.4 0.0
29/08:00am 18.9 19.5 11.9 64 3.9 CALM 0 4 0 2 1016.7 1016.1 0.0
29/07:30am 17.5 16.4 10.6 64 3.7 SSE 7 9 4 5 1016.5 1015.9 0.0
29/07:00am 16.6 15.9 11.5 72 2.8 SSE 6 7 3 4 1016.2 1015.6 0.0
29/06:30am 16.4 15.4 11.1 71 2.9 S 7 9 4 5 1015.7 1015.1 0.0
29/06:00am 16.6 15.6 10.9 69 3.1 S 7 9 4 5 1015.4 1014.8 0.0
29/05:30am 16.3 15.5 11.2 72 2.8 S 6 7 3 4 1015.5 1014.9 0.0
29/05:00am 16.8 15.6 10.4 66 3.4 S 7 7 4 4 1015.3 1014.7 0.0
29/04:30am 17.5 16.4 10.6 64 3.7 S 7 9 4 5 1015.1 1014.5 0.0
29/04:00am 17.8 16.8 10.9 64 3.7 S 7 9 4 5 1015.0 1014.4 0.0
29/03:30am 18.6 17.4 9.7 56 4.7 S 6 7 3 4 1014.8 1014.2 0.0
29/03:00am 19.4 18.0 9.6 53 5.2 S 7 9 4 5 1014.9 1014.3 0.0
29/02:30am 19.5 18.4 10.5 56 4.9 S 7 11 4 6 1015.2 1014.6 0.0
29/02:00am 19.7 18.5 10.4 55 5.0 SSE 7 11 4 6 1014.9 1014.3 0.0
29/01:30am 19.0 18.6 12.3 65 3.8 S 6 7 3 4 1015.0 1014.4 0.0
29/01:00am 18.7 18.4 12.7 68 3.4 SSE 6 9 3 5 1015.1 1014.5 0.0
29/12:30am 18.8 19.4 13.2 70 3.2 SE 2 6 1 3 1015.4 1014.8 0.0
29/12:00am 19.6 19.3 12.6 64 4.0 SSE 6 7 3 4 1015.7 1015.1 0.0
 
Date/Time
EST
Temp
°C
App
Temp
°C
Dew
Point
Rel
Hum
%
Delta-T
°C
Wind Press
QNH
hPa
Press
MSL
hPa
Rain
since 9 am
mm
Dir
 
Spd
km/h
Gust
km/h
Spd
kts
Gust
kts
28/11:30pm 19.9 19.3 12.2 61 4.3 SSE 7 7 4 4 1015.7 1015.1 0.0
28/11:00pm 20.5 19.5 10.9 54 5.3 S 7 9 4 5 1015.9 1015.3 0.0
28/10:30pm 20.5 20.0 12.7 61 4.4 SSE 7 7 4 4 1016.0 1015.4 0.0
28/10:00pm 20.7 20.6 13.4 63 4.2 SSE 6 9 3 5 1015.9 1015.3 0.0
28/09:30pm 20.3 20.6 14.4 69 3.5 SE 6 9 3 5 1015.8 1015.2 0.0
28/09:00pm 20.9 22.0 13.6 63 4.2 CALM 0 0 0 0 1015.7 1015.1 0.0
28/08:30pm 22.6 22.2 12.3 52 5.9 E 6 7 3 4 1015.4 1014.8 0.0
28/08:00pm 23.2 22.7 12.5 51 6.1 ESE 7 7 4 4 1015.1 1014.5 0.0
28/07:30pm 23.5 23.0 12.5 50 6.3 E 7 9 4 5 1014.7 1014.1 0.0
28/07:00pm 24.9 24.1 11.8 44 7.5 E 7 9 4 5 1014.4 1013.8 0.0
28/06:30pm 25.8 24.9 11.2 40 8.3 E 7 9 4 5 1014.2 1013.6 0.0
28/06:00pm 27.5 25.3 9.3 32 10.1 E 11 15 6 8 1014.0 1013.4 0.0

Other Formats:

Comma delimited format used in spreadsheet applications
http://www.bom.gov.au/fwo/IDQ60801/IDQ60801.94261.axf

JavaScript Object Notation format (JSON) in row-major order
http://www.bom.gov.au/fwo/IDQ60801/IDQ60801.94261.json